METAR - Iceland

Last updated 26.06.2022 - at. 21:05

SIGMET for the last six hours

No SIGMET messages last 6 hours.

METAR from the last three hours

From October 1 2021, runway conditions will not appear in METAR messages.
Instead ISAVIA will show SNOWTAM here: SNOWTAM | Isavia.

AerodromeTimeMessage
BIAR2022-06-26 21.00METAR BIAR 262100Z VRB01KT 9999 SCT022 BKN061 05/03 Q1008
BIAR2022-06-26 20.00METAR BIAR 262000Z 35003KT 290V030 9999 -SN FEW012 SCT015 BKN028 05/03 Q1009
BIAR2022-06-26 19.00METAR BIAR 261900Z 33005KT 300V010 9999 -DZ FEW011 BKN028 05/03 Q1009
BIEG2022-06-26 21.00METAR BIEG 262100Z 01009KT 340V040 9999 BKN037 09/04 Q1008
BIEG2022-06-26 20.00METAR BIEG 262000Z 21003KT 9999 BKN040 10/03 Q1008
BIEG2022-06-26 19.00METAR BIEG 261900Z 21007KT 9999 BKN040 11/02 Q1008
BIKF2022-06-26 21.00METAR BIKF 262100Z 03015KT 9999 -RA FEW017 BKN026 OVC080 06/03 Q1008
BIKF2022-06-26 20.30METAR BIKF 262030Z 02014KT 9999 -RA FEW018 BKN033 BKN070 06/03 Q1008
BIKF2022-06-26 20.00METAR BIKF 262000Z 03014KT 9999 -RA FEW018 BKN029 BKN070 06/04 Q1008
BIKF2022-06-26 19.30METAR BIKF 261930Z 03015KT 9999 -RA FEW018 BKN029 BKN070 06/04 Q1008
BIKF2022-06-26 19.00METAR BIKF 261900Z 03015KT 9999 -RA FEW018 BKN034 BKN075 06/04 Q1008
BIKF2022-06-26 18.30METAR BIKF 261830Z 03016KT 9999 -RA FEW017 BKN031 BKN080 06/04 Q1009
BIRK2022-06-26 21.00METAR BIRK 262100Z 36007KT 9999 -DZRA FEW026 OVC048 07/03 Q1008
BIRK2022-06-26 20.00METAR BIRK 262000Z 02004KT 340V070 9999 -RA FEW027 OVC038 07/03 Q1008
BIRK2022-06-26 20.00METAR BIRK 262000Z 35003KT 320V040 9999 FEW027 OVC038 07/03 Q1008
BIRK2022-06-26 19.00METAR BIRK 261900Z 36010KT 9999 -RA FEW028 OVC045 07/03 Q1009





Other related web sites


This website is built with Eplica CMS